メインページ
METAR-TAF:

METAR-TAF

空港 :

台湾桃園国際空港

台北, 台湾

緯度: 25-05N, 経度: 121-13E, 海抜: 33m

現時点の気象観測

当レポートは24分前の23:00(UTC)に作成
東/北東の風 18kt
気温 28°C
湿度 74%
気圧 1009 hPa
視程10km以上
高度2000ftの雲はほとんどない

METAR: RCTP 242300Z 06018KT 9999 FEW020 28/23 Q1009 NOSIG RMK A2982

時間: 07:24 (23:24 UTC)

予報

当レポートは6時間24分前の17:00(UTC)に作成
予報は24日の 18時(UTC)から 25日の 24時(UTC)まで有効
北東の風 22kt
視程: 8000m
高度1200ftの雲はほとんどない
高度2200ftの千切れ雲あり
高度5000ftの千切れ雲あり
24日の 18時(UTC)から 24日の 24時(UTC)まで一時的に
視程: 5000m
高度1000ftの雲はほとんどない
高度1600ftの千切れ雲あり
高度4000ftの千切れ雲あり
にわか雨
25日の 02時(UTC)から 25日の 08時(UTC)まで一時的に
北/北東の風 23kt、最大33ktの突風を伴う
25日の 08時(UTC)から 25日の 14時(UTC)まで一時的に
視程: 5000m
高度1000ftの雲はほとんどない
高度1600ftの千切れ雲あり
高度4000ftの千切れ雲あり
にわか雨
25日の 20時(UTC)から 25日の 24時(UTC)まで一時的に
北/北東の風 25kt、最大35ktの突風を伴う
視程: 4000m
高度600ftの雲は散在している
高度1100ftの千切れ雲あり
高度3000ftの千切れ雲あり
にわか雨

TAF: RCTP 241700Z 2418/2524 04022KT 8000 FEW012 BKN022 BKN050 TEMPO 2418/2424 5000 SHRA FEW010 BKN016 BKN040 TEMPO 2502/2508 03023G33KT TEMPO 2508/2514 5000 SHRA FEW010 BKN016 BKN040 TEMPO 2520/2524 03025G35KT 4000 SHRA SCT006 BKN011 BKN030

4,000以上の空港の気象観測と天気予報(METAR報とTAF報)

利用可能な観測所は地図上に黄色い丸と赤い丸で示す。

丸の上にカーソルを重ねると観測所名を参照できる。

次にクリックすると気象観測と天気予報を参照できる。

マップの切り替え:黒色「×」印の緑ボタンをクリックして拡大、「-」印の緑ボタンをクリックして縮小、緑色の三角印をクリックして隣りの地図に切り替え


METAR-TAF: